createdAt,value
2022-11-16T00:00:35.316Z,96377.97
2022-11-16T00:03:03.021Z,96382.66
2022-11-16T00:05:29.549Z,96371.44
2022-11-16T00:07:56.326Z,96366.41
2022-11-16T00:10:22.725Z,96360.38
2022-11-16T00:12:49.113Z,96355.50
2022-11-16T00:15:15.579Z,96352.06
2022-11-16T00:17:41.998Z,96353.19
2022-11-16T00:20:08.742Z,96351.59
2022-11-16T00:22:35.229Z,96347.84
2022-11-16T00:25:01.571Z,96351.59
2022-11-16T00:27:28.073Z,96344.56
2022-11-16T00:29:54.527Z,96340.50
2022-11-16T00:32:21.083Z,96333.81
2022-11-16T00:34:47.514Z,96322.91
2022-11-16T00:37:13.945Z,96315.94
2022-11-16T00:39:40.373Z,96321.28
2022-11-16T00:42:06.826Z,96321.28
2022-11-16T00:44:33.267Z,96325.81
2022-11-16T00:46:59.644Z,96336.53
2022-11-16T00:49:26.088Z,96335.34
2022-11-16T00:51:52.498Z,96333.06
2022-11-16T00:54:19.619Z,96336.41
2022-11-16T00:56:46.095Z,96335.09
2022-11-16T00:59:12.566Z,96338.78
2022-11-16T01:01:41.272Z,96336.66
2022-11-16T01:04:07.788Z,96326.69
2022-11-16T01:06:35.704Z,96318.91
2022-11-16T01:09:02.506Z,96310.94
2022-11-16T01:11:47.716Z,96303.66
2022-11-16T01:14:14.229Z,96305.47
2022-11-16T01:16:43.147Z,96303.50
2022-11-16T01:19:09.629Z,96299.28
2022-11-16T01:21:36.695Z,96296.53
2022-11-16T01:24:03.170Z,96295.59
2022-11-16T01:26:29.698Z,96288.44
2022-11-16T01:28:57.668Z,96278.72
2022-11-16T01:31:24.474Z,96286.66
2022-11-16T01:33:51.806Z,96284.72
2022-11-16T01:36:27.051Z,96290.59
2022-11-16T01:38:55.489Z,96292.22
2022-11-16T01:41:26.161Z,96297.09
2022-11-16T01:43:55.647Z,96305.25
2022-11-16T01:46:25.088Z,96296.19
2022-11-16T01:48:54.775Z,96295.88
2022-11-16T01:51:22.520Z,96286.81
2022-11-16T01:53:49.616Z,96284.56
2022-11-16T01:56:17.009Z,96273.84
2022-11-16T01:58:52.374Z,96271.94
2022-11-16T02:01:23.588Z,96266.41
2022-11-16T02:03:54.403Z,96274.22
2022-11-16T02:06:21.371Z,96269.69
2022-11-16T02:09:25.517Z,96263.53
2022-11-16T02:12:29.881Z,96265.13
2022-11-16T02:14:56.373Z,96265.50
2022-11-16T02:17:23.827Z,96265.50
2022-11-16T02:20:09.447Z,96262.88
2022-11-16T02:22:55.552Z,96259.19
2022-11-16T02:25:32.359Z,96263.41
2022-11-16T02:28:13.099Z,96264.88
2022-11-16T02:30:43.288Z,96250.75
2022-11-16T02:33:12.643Z,96238.22
2022-11-16T02:35:52.133Z,96234.66
2022-11-16T02:38:23.034Z,96232.06
2022-11-16T02:40:53.268Z,96232.72
2022-11-16T02:43:28.155Z,96243.94
2022-11-16T02:45:57.099Z,96243.13
2022-11-16T02:48:26.010Z,96243.13
2022-11-16T02:50:53.723Z,96243.94
2022-11-16T02:53:21.219Z,96245.44
2022-11-16T02:55:47.883Z,96236.63
2022-11-16T02:58:17.912Z,96232.88
2022-11-16T03:00:48.026Z,96230.00
2022-11-16T03:03:20.803Z,96225.13
2022-11-16T03:05:50.284Z,96221.56
2022-11-16T03:08:23.177Z,96215.06
2022-11-16T03:11:12.262Z,96224.31
2022-11-16T03:13:40.554Z,96226.63
2022-11-16T03:16:16.057Z,96230.84
2022-11-16T03:18:44.396Z,96226.16
2022-11-16T03:21:15.173Z,96232.00
2022-11-16T03:23:43.490Z,96232.69
2022-11-16T03:26:10.396Z,96235.78
2022-11-16T03:28:42.398Z,96230.41
2022-11-16T03:31:14.991Z,96237.22
2022-11-16T03:33:48.328Z,96229.91
2022-11-16T03:36:18.116Z,96228.81
2022-11-16T03:38:46.353Z,96229.44
2022-11-16T03:41:14.726Z,96241.16
2022-11-16T03:43:43.446Z,96243.59
2022-11-16T03:46:10.065Z,96255.66
2022-11-16T03:48:37.807Z,96249.97
2022-11-16T03:51:10.330Z,96239.56
2022-11-16T03:53:38.416Z,96242.50
2022-11-16T03:56:05.082Z,96247.53
2022-11-16T03:58:31.947Z,96252.56
2022-11-16T04:00:59.119Z,96255.00
2022-11-16T04:03:27.615Z,96258.44
2022-11-16T04:06:13.127Z,96253.22
2022-11-16T04:08:58.316Z,96257.16
2022-11-16T04:11:43.600Z,96262.19
2022-11-16T04:14:33.462Z,96257.78
2022-11-16T04:17:18.717Z,96263.50
2022-11-16T04:20:03.784Z,96254.38
2022-11-16T04:22:58.077Z,96253.72
2022-11-16T04:25:28.246Z,96258.59
2022-11-16T04:28:13.452Z,96245.59
2022-11-16T04:31:03.943Z,96231.28
2022-11-16T04:33:49.751Z,96238.09
2022-11-16T04:36:36.051Z,96243.81
2022-11-16T04:39:03.340Z,96249.50
2022-11-16T04:41:49.146Z,96248.03
2022-11-16T04:44:16.049Z,96247.22
2022-11-16T04:47:01.360Z,96236.16
2022-11-16T04:49:27.788Z,96240.53
2022-11-16T04:51:56.101Z,96232.72
2022-11-16T04:54:23.032Z,96231.75
2022-11-16T04:56:49.857Z,96225.56
2022-11-16T04:59:18.712Z,96242.31
2022-11-16T05:02:03.854Z,96256.34
2022-11-16T05:04:30.779Z,96265.44
2022-11-16T05:06:58.034Z,96275.06
2022-11-16T05:09:24.726Z,96271.97
2022-11-16T05:11:51.450Z,96280.59
2022-11-16T05:14:17.968Z,96275.72
2022-11-16T05:16:44.433Z,96288.41
2022-11-16T05:19:29.432Z,96287.44
2022-11-16T05:21:58.509Z,96279.44
2022-11-16T05:24:34.112Z,96281.59
2022-11-16T05:27:03.678Z,96273.44
2022-11-16T05:29:31.058Z,96277.53
2022-11-16T05:31:58.040Z,96285.19
2022-11-16T05:34:25.860Z,96288.56
2022-11-16T05:36:52.415Z,96293.00
2022-11-16T05:39:19.533Z,96293.00
2022-11-16T05:41:47.377Z,96285.00
2022-11-16T05:44:14.312Z,96286.63
2022-11-16T05:46:41.265Z,96278.81
2022-11-16T05:49:08.787Z,96278.66
2022-11-16T05:51:36.793Z,96276.69
2022-11-16T05:54:03.761Z,96284.34
2022-11-16T05:56:31.524Z,96281.59
2022-11-16T05:58:58.263Z,96282.75
2022-11-16T06:01:25.385Z,96275.41
2022-11-16T06:03:52.040Z,96275.41
2022-11-16T06:06:18.629Z,96273.31
2022-11-16T06:08:45.412Z,96264.50
2022-11-16T06:11:16.673Z,96267.09
2022-11-16T06:13:44.393Z,96263.53
2022-11-16T06:16:11.627Z,96263.53
2022-11-16T06:18:40.271Z,96258.81
2022-11-16T06:21:07.813Z,96256.84
2022-11-16T06:23:34.818Z,96261.09
2022-11-16T06:26:02.565Z,96252.44
2022-11-16T06:28:30.005Z,96257.47
2022-11-16T06:30:56.780Z,96258.16
2022-11-16T06:33:28.537Z,96259.75
2022-11-16T06:35:57.917Z,96266.44
2022-11-16T06:38:24.634Z,96269.22
2022-11-16T06:40:55.308Z,96262.38
2022-11-16T06:43:26.163Z,96258.97
2022-11-16T06:45:57.870Z,96258.97
2022-11-16T06:48:24.618Z,96256.19
2022-11-16T06:50:52.085Z,96256.03
2022-11-16T06:53:27.601Z,96257.34
2022-11-16T06:56:00.735Z,96262.22
2022-11-16T06:58:28.911Z,96260.72
2022-11-16T07:00:55.404Z,96260.56
2022-11-16T07:03:22.800Z,96269.88
2022-11-16T07:05:49.241Z,96262.22
2022-11-16T07:08:17.212Z,96270.69
2022-11-16T07:10:43.655Z,96265.66
2022-11-16T07:13:10.099Z,96264.47
2022-11-16T07:15:38.449Z,96268.09
2022-11-16T07:18:06.449Z,96259.44
2022-11-16T07:20:35.110Z,96260.09
2022-11-16T07:23:02.938Z,96265.78
2022-11-16T07:25:29.485Z,96264.16
2022-11-16T07:27:57.788Z,96259.59
2022-11-16T07:30:24.686Z,96265.47
2022-11-16T07:33:04.161Z,96258.63
2022-11-16T07:35:49.028Z,96256.16
2022-11-16T07:38:18.203Z,96261.69
2022-11-16T07:40:45.705Z,96260.56
2022-11-16T07:43:20.172Z,96249.78
2022-11-16T07:46:44.732Z,96257.78
2022-11-16T07:48:53.657Z,96256.66
2022-11-16T07:51:38.625Z,96247.50
2022-11-16T07:54:24.218Z,96248.31
2022-11-16T07:56:51.232Z,96250.13
2022-11-16T07:59:18.435Z,96250.59
2022-11-16T08:01:48.542Z,96252.06
2022-11-16T08:04:17.384Z,96255.34
2022-11-16T08:06:44.309Z,96255.34
2022-11-16T08:09:10.856Z,96249.78
2022-11-16T08:11:38.041Z,96253.81
2022-11-16T08:14:04.769Z,96258.75
2022-11-16T08:16:33.305Z,96253.34
2022-11-16T08:19:07.861Z,96258.56
2022-11-16T08:21:34.352Z,96260.19
2022-11-16T08:24:02.542Z,96256.59
2022-11-16T08:26:30.640Z,96264.25
2022-11-16T08:29:03.380Z,96258.88
2022-11-16T08:31:34.019Z,96253.31
2022-11-16T08:34:07.747Z,96252.97
2022-11-16T08:36:36.094Z,96262.44
2022-11-16T08:39:03.274Z,96264.06
2022-11-16T08:41:31.684Z,96257.06
2022-11-16T08:44:00.414Z,96261.75
2022-11-16T08:46:27.053Z,96256.19
2022-11-16T08:49:02.787Z,96262.56
2022-11-16T08:51:29.278Z,96268.41
2022-11-16T08:54:03.888Z,96279.03
2022-11-16T08:56:31.233Z,96274.47
2022-11-16T08:58:59.094Z,96281.94
2022-11-16T09:01:27.937Z,96286.19
2022-11-16T09:03:54.887Z,96285.88
2022-11-16T09:06:21.784Z,96279.31
2022-11-16T09:08:48.235Z,96285.53
2022-11-16T09:11:16.162Z,96288.59
2022-11-16T09:13:43.138Z,96286.00
2022-11-16T09:16:10.192Z,96297.09
2022-11-16T09:18:37.396Z,96304.75
2022-11-16T09:21:04.191Z,96301.97
2022-11-16T09:23:30.593Z,96316.97
2022-11-16T09:26:00.176Z,96322.38
2022-11-16T09:28:27.687Z,96326.59
2022-11-16T09:30:54.076Z,96335.91
2022-11-16T09:33:20.464Z,96315.97
2022-11-16T09:35:47.061Z,96300.63
2022-11-16T09:38:19.116Z,96300.31
2022-11-16T09:40:50.720Z,96288.38
2022-11-16T09:43:32.901Z,96280.72
2022-11-16T09:46:14.788Z,96280.38
2022-11-16T09:48:41.425Z,96276.75
2022-11-16T09:51:09.710Z,96288.94
2022-11-16T09:53:36.583Z,96287.25
2022-11-16T09:56:05.656Z,96286.41
2022-11-16T09:58:35.283Z,96285.88
2022-11-16T10:01:05.863Z,96279.50
2022-11-16T10:03:38.132Z,96279.94
2022-11-16T10:06:12.867Z,96278.28
2022-11-16T10:08:45.502Z,96274.69
2022-11-16T10:11:30.661Z,96284.72
2022-11-16T10:14:25.747Z,96275.28
2022-11-16T10:17:11.047Z,96272.78
2022-11-16T10:19:43.500Z,96268.19
2022-11-16T10:22:28.779Z,96265.22
2022-11-16T10:24:59.098Z,96269.28
2022-11-16T10:27:37.904Z,96258.00
2022-11-16T10:30:08.894Z,96250.44
2022-11-16T10:32:39.431Z,96251.75
2022-11-16T10:35:11.961Z,96260.03
2022-11-16T10:37:41.158Z,96247.44
2022-11-16T10:40:21.643Z,96043.94
2022-11-16T10:43:05.904Z,96246.16
2022-11-16T10:45:39.171Z,96249.41
2022-11-16T10:48:23.743Z,96249.53
2022-11-16T10:50:51.682Z,96250.63
2022-11-16T10:53:28.786Z,96246.66
2022-11-16T10:56:14.044Z,96239.47
2022-11-16T10:58:55.775Z,96241.88
2022-11-16T11:01:33.176Z,96238.91
2022-11-16T11:04:11.705Z,96234.31
2022-11-16T11:06:38.463Z,96232.53
2022-11-16T11:09:14.752Z,96239.00
2022-11-16T11:11:59.890Z,96238.47
2022-11-16T11:14:26.346Z,96234.69
2022-11-16T11:16:53.136Z,96233.50
2022-11-16T11:19:27.431Z,96235.75
2022-11-16T11:21:58.624Z,96233.59
2022-11-16T11:27:12.269Z,96229.78
2022-11-16T11:29:41.270Z,96230.16
2022-11-16T11:32:14.623Z,96223.84
2022-11-16T11:34:44.802Z,96231.88
2022-11-16T11:37:15.152Z,96233.84
2022-11-16T11:39:41.599Z,96228.81
2022-11-16T11:42:14.324Z,96235.22
2022-11-16T11:44:50.167Z,96230.19
2022-11-16T11:47:55.699Z,96231.97
2022-11-16T11:50:10.969Z,96226.72
2022-11-16T11:52:40.509Z,96216.72
2022-11-16T11:55:07.799Z,96218.59
2022-11-16T11:57:38.584Z,96224.56
2022-11-16T12:00:05.864Z,96224.31
2022-11-16T12:02:52.960Z,96219.16
2022-11-16T12:05:35.358Z,96212.19
2022-11-16T12:08:07.926Z,96217.50
2022-11-16T12:10:37.371Z,96209.34
2022-11-16T12:13:03.873Z,96206.81
2022-11-16T12:15:46.989Z,96209.97
2022-11-16T12:18:13.350Z,96207.22
2022-11-16T12:20:58.779Z,96202.22
2022-11-16T12:23:44.084Z,96197.63
2022-11-16T12:26:10.461Z,96197.81
2022-11-16T12:28:39.857Z,96200.44
2022-11-16T12:31:10.167Z,96195.97
2022-11-16T12:33:44.356Z,96192.00
2022-11-16T12:36:13.863Z,96189.00
2022-11-16T12:38:45.213Z,96179.44
2022-11-16T12:41:23.974Z,96181.75
2022-11-16T12:43:50.395Z,96181.44
2022-11-16T12:46:21.641Z,96174.44
2022-11-16T12:48:48.317Z,96175.50
2022-11-16T12:51:14.682Z,96174.28
2022-11-16T12:53:56.864Z,96173.31
2022-11-16T12:56:37.714Z,96182.78
2022-11-16T12:59:16.374Z,96181.16
2022-11-16T13:02:00.629Z,96185.41
2022-11-16T13:04:32.094Z,96185.66
2022-11-16T13:07:11.427Z,96181.66
2022-11-16T13:09:40.659Z,96191.81
2022-11-16T13:12:14.118Z,96187.63
2022-11-16T13:14:43.425Z,96190.91
2022-11-16T13:17:15.289Z,96191.78
2022-11-16T13:19:44.170Z,96185.97
2022-11-16T13:22:14.602Z,96187.84
2022-11-16T13:24:44.359Z,96182.63
2022-11-16T13:27:26.207Z,96180.47
2022-11-16T13:29:52.605Z,96175.22
2022-11-16T13:32:31.206Z,96183.34
2022-11-16T13:34:58.794Z,96175.47
2022-11-16T13:37:37.889Z,96184.16
2022-11-16T13:40:04.594Z,96180.16
2022-11-16T13:42:33.749Z,96176.50
2022-11-16T13:45:09.532Z,96164.00
2022-11-16T13:47:37.181Z,96164.00
2022-11-16T13:50:05.734Z,96159.34
2022-11-16T13:53:36.446Z,96163.41
2022-11-16T13:55:34.139Z,95877.16
2022-11-16T13:58:03.248Z,96161.38
2022-11-16T14:00:31.370Z,96163.19
2022-11-16T14:03:16.055Z,96164.41
2022-11-16T14:05:47.103Z,96158.94
2022-11-16T14:08:19.551Z,96159.91
2022-11-16T14:10:52.092Z,96158.69
2022-11-16T14:13:36.986Z,96159.44
2022-11-16T14:16:21.677Z,96161.84
2022-11-16T14:18:48.050Z,96161.59
2022-11-16T14:21:17.432Z,96163.78
2022-11-16T14:23:46.180Z,96164.78
2022-11-16T14:26:39.056Z,96161.38
2022-11-16T14:29:11.324Z,96149.03
2022-11-16T14:31:46.770Z,96151.66
2022-11-16T14:34:18.237Z,96144.41
2022-11-16T14:36:45.996Z,96139.56
2022-11-16T14:39:24.650Z,96133.34
2022-11-16T14:41:51.266Z,96139.56
2022-11-16T14:44:19.445Z,96133.13
2022-11-16T14:46:46.337Z,96128.31
2022-11-16T14:49:15.944Z,96132.53
2022-11-16T14:51:47.468Z,96124.88
2022-11-16T14:54:20.386Z,96122.84
2022-11-16T14:56:57.740Z,96130.28
2022-11-16T14:59:24.270Z,96124.00
2022-11-16T15:01:50.743Z,96126.59
2022-11-16T15:04:17.880Z,96121.47
2022-11-16T15:06:48.826Z,96116.78
2022-11-16T15:09:24.377Z,96118.16
2022-11-16T15:12:09.605Z,96111.25
2022-11-16T15:14:50.847Z,96114.63
2022-11-16T15:17:19.395Z,96111.34
2022-11-16T15:19:59.258Z,96121.16
2022-11-16T15:22:30.387Z,96107.81
2022-11-16T15:24:58.191Z,96106.94
2022-11-16T15:27:27.912Z,96106.50
2022-11-16T15:29:54.330Z,96107.72
2022-11-16T15:32:20.880Z,96108.91
2022-11-16T15:34:49.002Z,96114.53
2022-11-16T15:37:25.946Z,96108.84
2022-11-16T15:39:56.396Z,96120.69
2022-11-16T15:42:23.799Z,96122.84
2022-11-16T15:44:50.910Z,96127.31
2022-11-16T15:47:18.113Z,96127.06
2022-11-16T15:49:49.488Z,96132.91
2022-11-16T15:52:35.006Z,96130.31
2022-11-16T15:55:04.311Z,96125.22
2022-11-16T15:57:30.977Z,96125.41
2022-11-16T15:59:58.015Z,96124.44
2022-11-16T16:02:29.789Z,96125.41
2022-11-16T16:04:56.629Z,96118.56
2022-11-16T16:07:36.581Z,96117.75
2022-11-16T16:10:18.400Z,96120.38
2022-11-16T16:12:52.098Z,96110.91
2022-11-16T16:15:21.939Z,96105.03
2022-11-16T16:17:48.803Z,96108.47
2022-11-16T16:20:18.214Z,96107.66
2022-11-16T16:22:44.669Z,96113.25
2022-11-16T16:25:30.099Z,96113.47
2022-11-16T16:27:56.530Z,96118.06
2022-11-16T16:30:23.179Z,96126.31
2022-11-16T16:32:50.311Z,96124.66
2022-11-16T16:35:18.314Z,96127.47
2022-11-16T16:37:47.933Z,96125.25
2022-11-16T16:40:14.389Z,96127.22
2022-11-16T16:42:42.890Z,96123.00
2022-11-16T16:45:14.869Z,96116.75
2022-11-16T16:47:41.425Z,96116.75
2022-11-16T16:50:08.005Z,96110.69
2022-11-16T16:52:34.366Z,96118.56
2022-11-16T16:55:00.774Z,96120.19
2022-11-16T16:57:28.904Z,96115.75
2022-11-16T16:59:55.347Z,96116.75
2022-11-16T17:02:21.961Z,96121.75
2022-11-16T17:04:48.891Z,96120.28
2022-11-16T17:07:15.868Z,95967.88
2022-11-16T17:09:42.795Z,96111.81
2022-11-16T17:12:10.761Z,96112.44
2022-11-16T17:14:37.329Z,96116.88
2022-11-16T17:17:03.759Z,96106.59
2022-11-16T17:19:30.155Z,96107.56
2022-11-16T17:21:56.629Z,96101.34
2022-11-16T17:24:23.108Z,96102.13
2022-11-16T17:26:53.434Z,96104.75
2022-11-16T17:29:19.825Z,96097.91
2022-11-16T17:31:47.114Z,96089.22
2022-11-16T17:34:14.117Z,96087.00
2022-11-16T17:36:42.661Z,96099.47
2022-11-16T17:39:09.251Z,96086.38
2022-11-16T17:41:35.988Z,96087.97
2022-11-16T17:44:02.334Z,96091.41
2022-11-16T17:46:29.162Z,96094.03
2022-11-16T17:48:55.693Z,96088.59
2022-11-16T17:51:23.547Z,96092.03
2022-11-16T17:53:50.596Z,96086.19
2022-11-16T17:56:19.031Z,96087.81
2022-11-16T17:58:46.206Z,96089.63
2022-11-16T18:01:13.597Z,96090.44
2022-11-16T18:03:42.510Z,96095.69
2022-11-16T18:06:13.922Z,96097.09
2022-11-16T18:08:40.842Z,96103.16
2022-11-16T18:11:08.305Z,96099.72
2022-11-16T18:13:35.555Z,96088.41
2022-11-16T18:16:21.489Z,96094.66
2022-11-16T18:18:48.490Z,96087.81
2022-11-16T18:21:20.388Z,96079.53
2022-11-16T18:23:47.371Z,96079.72
2022-11-16T18:26:14.972Z,96086.75
2022-11-16T18:28:41.472Z,96080.88
2022-11-16T18:31:09.792Z,96072.19
2022-11-16T18:33:36.961Z,96070.59
2022-11-16T18:36:04.480Z,96075.84
2022-11-16T18:38:31.385Z,96072.38
2022-11-16T18:41:06.993Z,96072.38
2022-11-16T18:43:36.704Z,96070.78
2022-11-16T18:46:03.637Z,96060.31
2022-11-16T18:48:30.066Z,96066.97
2022-11-16T18:50:58.681Z,96058.13
2022-11-16T18:53:25.457Z,96054.88
2022-11-16T18:55:57.594Z,96051.25
2022-11-16T18:58:49.244Z,96052.88
2022-11-16T19:01:12.692Z,96050.47
2022-11-16T19:03:39.120Z,96050.28
2022-11-16T19:06:10.187Z,96044.84
2022-11-16T19:08:37.599Z,96043.59
2022-11-16T19:11:08.544Z,96028.69
2022-11-16T19:13:35.474Z,96036.75
2022-11-16T19:16:03.748Z,96031.50
2022-11-16T19:18:30.237Z,96027.88
2022-11-16T19:21:18.452Z,96028.88
2022-11-16T19:23:46.120Z,96022.00
2022-11-16T19:26:14.491Z,96022.19
2022-11-16T19:28:42.259Z,96021.56
2022-11-16T19:31:09.911Z,96019.78
2022-11-16T19:33:36.857Z,96029.44
2022-11-16T19:36:10.550Z,96023.41
2022-11-16T19:38:37.455Z,96023.41
2022-11-16T19:41:04.472Z,96030.88
2022-11-16T19:43:31.314Z,96030.88
2022-11-16T19:46:05.188Z,96035.28
2022-11-16T19:48:32.556Z,96041.34
2022-11-16T19:51:06.396Z,96041.34
2022-11-16T19:53:33.235Z,96043.78
2022-11-16T19:56:00.306Z,96033.31
2022-11-16T19:58:26.976Z,96033.31
2022-11-16T20:01:00.080Z,96032.91
2022-11-16T20:03:26.693Z,96033.56
2022-11-16T20:05:55.980Z,96040.44
2022-11-16T20:08:22.426Z,96029.94
2022-11-16T20:10:48.848Z,96027.94
2022-11-16T20:13:15.596Z,96024.31
2022-11-16T20:15:42.080Z,96030.19
2022-11-16T20:18:09.041Z,96028.38
2022-11-16T20:20:37.117Z,96015.28
2022-11-16T20:23:03.669Z,96019.72
2022-11-16T20:25:30.112Z,96010.03
2022-11-16T20:27:56.493Z,96023.75
2022-11-16T20:30:22.880Z,96021.53
2022-11-16T20:32:49.540Z,96012.84
2022-11-16T20:35:19.064Z,96010.22
2022-11-16T20:37:45.729Z,96018.72
2022-11-16T20:40:12.337Z,96012.47
2022-11-16T20:42:38.758Z,96017.88
2022-11-16T20:45:06.734Z,96021.31
2022-11-16T20:47:33.162Z,96029.19
2022-11-16T20:49:59.540Z,96027.38
2022-11-16T20:52:25.945Z,96029.63
2022-11-16T20:54:52.334Z,96032.25
2022-11-16T20:57:19.023Z,96028.00
2022-11-16T20:59:45.490Z,96029.63
2022-11-16T21:02:11.957Z,96028.63
2022-11-16T21:04:38.342Z,96020.94
2022-11-16T21:07:04.804Z,96016.09
2022-11-16T21:09:51.339Z,96010.84
2022-11-16T21:12:42.635Z,96021.31
2022-11-16T21:15:09.814Z,96029.19
2022-11-16T21:17:36.436Z,96022.34
2022-11-16T21:20:26.333Z,96023.13
2022-11-16T21:22:50.724Z,96029.38
2022-11-16T21:25:17.456Z,96036.41
2022-11-16T21:27:43.893Z,96032.97
2022-11-16T21:30:10.921Z,96040.03
2022-11-16T21:32:37.364Z,96033.34
2022-11-16T21:35:03.867Z,96038.41
2022-11-16T21:37:30.274Z,96039.41
2022-11-16T21:39:56.714Z,96035.19
2022-11-16T21:42:23.138Z,96025.50
2022-11-16T21:44:49.627Z,96028.13
2022-11-16T21:47:16.017Z,96033.16
2022-11-16T21:50:08.342Z,96033.56
2022-11-16T21:52:29.083Z,96035.19
2022-11-16T21:55:01.145Z,96042.03
2022-11-16T21:57:28.964Z,96041.22
2022-11-16T21:59:55.557Z,96042.22
2022-11-16T22:02:21.941Z,96036.34
2022-11-16T22:05:07.071Z,96035.34
2022-11-16T22:07:37.896Z,96027.69
2022-11-16T22:10:06.335Z,96028.31
2022-11-16T22:12:33.061Z,96033.34
2022-11-16T22:14:59.598Z,96029.31
2022-11-16T22:17:26.203Z,96024.09
2022-11-16T22:19:53.887Z,96015.41
2022-11-16T22:22:20.311Z,96018.22
2022-11-16T22:24:47.448Z,96005.94
2022-11-16T22:27:17.640Z,95985.78
2022-11-16T22:29:44.427Z,95974.69
2022-11-16T22:32:10.898Z,95974.69
2022-11-16T22:34:37.421Z,95975.88
2022-11-16T22:37:03.809Z,95978.31
2022-11-16T22:39:30.220Z,95966.22
2022-11-16T22:41:56.652Z,95965.59
2022-11-16T22:44:23.028Z,95966.59
2022-11-16T22:46:49.529Z,95968.22
2022-11-16T22:49:15.903Z,95967.41
2022-11-16T22:51:42.407Z,95966.78
2022-11-16T22:54:11.328Z,95968.41
2022-11-16T22:56:38.164Z,95965.16
2022-11-16T22:59:05.626Z,95962.75
2022-11-16T23:01:32.202Z,95845.06
2022-11-16T23:03:58.700Z,95966.34
2022-11-16T23:06:25.559Z,95967.97
2022-11-16T23:08:52.039Z,95960.13
2022-11-16T23:11:39.060Z,95967.72
2022-11-16T23:14:24.780Z,95960.66
2022-11-16T23:16:51.525Z,95952.03
2022-11-16T23:19:37.375Z,95952.66
2022-11-16T23:22:23.094Z,95943.16
2022-11-16T23:25:07.897Z,95942.97
2022-11-16T23:27:43.518Z,95934.31
2022-11-16T23:30:12.705Z,95921.22
2022-11-16T23:32:40.417Z,95905.44
2022-11-16T23:35:07.309Z,95913.75
2022-11-16T23:37:33.803Z,95915.38
2022-11-16T23:40:00.323Z,95908.50
2022-11-16T23:42:45.512Z,95906.69
2022-11-16T23:45:11.912Z,95907.53
2022-11-16T23:47:38.298Z,95904.47
2022-11-16T23:50:04.866Z,95906.25
2022-11-16T23:52:31.305Z,95909.50
2022-11-16T23:54:57.738Z,95914.75
2022-11-16T23:57:24.131Z,95906.06
2022-11-16T23:59:50.601Z,95896.63
